Impacts TAF Board
For situational awareness. Not to be used for flight planning purposes.
IDs:

KPUB - Pueblo Mem Arpt, CO, US

Issued at 1720 UTC 30 Oct 2020
Updated at 1724 UTC 30 Oct 2020
Potential Impact None Slight Moderate High
Time1653Z 30/18Z 30/19Z 30/20Z 30/21Z 30/22Z 30/23Z 31/00Z 31/01Z 31/02Z 31/03Z 31/04Z 31/05Z 31/06Z>>
Type OBS PRVL PRVL PRVL PRVL PRVL PRVL PRVL PRVL PRVL PRVL PRVL PRVL PRVL
VIS 10 >6 >6 >6 >6 >6 >6 >6 >6 >6 >6 >6 >6 >6
CIG -- -- -- -- -- -- -- -- -- -- -- -- -- --
Cover CLR SKC SKC SKC SKC SKC SKC SKC SKC SKC SKC SKC SKC SKC
FltCat VFR VFR VFR VFR VFR VFR VFR VFR VFR VFR VFR VFR VFR VFR
WX -- -- -- -- -- -- -- -- -- -- -- -- -- --
WDir VRB 260 260 140 140 140 140 140 140 140 290 290 290 290
WSpd 4 5 5 7 7 7 7 7 7 7 6 6 6 6
WGst -- -- -- -- -- -- -- -- -- -- -- -- -- --
Raw TAF
KPUB 301720Z 3018/3118 26005KT P6SM SKC
  FM302000 14007KT P6SM SKC
  FM310300 29006KT P6SM SKC
  FM310800 29010KT P6SM SKC


Raw METAR
KPUB 301653Z VRB04KT 10SM CLR 11/02 A3022 RMK AO2 SLP221 T01110022
KPUB 301553Z 26005KT 10SM CLR 08/01 A3025 RMK AO2 SLP238 T00780011
KPUB 301453Z 25004KT 10SM CLR 04/01 A3025 RMK AO2 SLP242 T00390006 53007

METAR Board
Radar Display
Forecast Discussion
For situational awareness. Not to be used for flight planning purposes.